createdAt,value
2022-08-17T00:00:43.262Z,17.65
2022-08-17T00:03:43.145Z,19.75
2022-08-17T00:06:45.319Z,20.88
2022-08-17T00:09:49.817Z,21.17
2022-08-17T00:12:52.751Z,17.93
2022-08-17T00:15:59.445Z,17.48
2022-08-17T00:19:10.087Z,18.35
2022-08-17T00:22:32.677Z,19.38
2022-08-17T00:25:34.628Z,17.90
2022-08-17T00:28:38.331Z,19.03
2022-08-17T00:31:40.966Z,21.40
2022-08-17T00:34:43.188Z,20.65
2022-08-17T00:37:45.817Z,20.52
2022-08-17T00:40:55.813Z,17.17
2022-08-17T00:44:03.817Z,18.07
2022-08-17T00:47:06.620Z,16.70
2022-08-17T00:50:12.227Z,17.80
2022-08-17T00:53:14.473Z,15.63
2022-08-17T00:56:21.189Z,16.60
2022-08-17T00:59:26.619Z,16.20
2022-08-17T01:02:29.675Z,18.90
2022-08-17T01:05:38.815Z,17.75
2022-08-17T01:08:44.792Z,18.52
2022-08-17T01:11:52.443Z,20.20
2022-08-17T01:14:55.358Z,19.67
2022-08-17T01:17:57.791Z,18.08
2022-08-17T01:21:06.234Z,18.73
2022-08-17T01:24:09.536Z,18.77
2022-08-17T01:27:16.101Z,21.17
2022-08-17T01:30:57.072Z,20.10
2022-08-17T01:33:43.857Z,20.58
2022-08-17T01:36:49.856Z,20.73
2022-08-17T01:39:55.206Z,21.10
2022-08-17T01:43:01.777Z,19.50
2022-08-17T01:46:04.314Z,19.83
2022-08-17T01:49:09.040Z,21.13
2022-08-17T01:52:11.917Z,23.60
2022-08-17T01:55:16.373Z,21.67
2022-08-17T01:58:19.696Z,19.20
2022-08-17T02:01:24.625Z,21.13
2022-08-17T02:04:26.946Z,20.10
2022-08-17T02:07:30.032Z,25.88
2022-08-17T02:10:34.963Z,23.50
2022-08-17T02:13:38.573Z,24.07
2022-08-17T02:16:42.482Z,20.83
2022-08-17T02:19:45.580Z,19.05
2022-08-17T02:22:48.949Z,21.48
2022-08-17T02:25:52.070Z,22.00
2022-08-17T02:28:55.370Z,23.67
2022-08-17T02:31:59.078Z,21.60
2022-08-17T02:35:03.195Z,22.17
2022-08-17T02:38:07.313Z,22.50
2022-08-17T02:41:10.709Z,23.15
2022-08-17T02:44:13.803Z,23.53
2022-08-17T02:47:37.076Z,23.20
2022-08-17T02:50:40.172Z,22.98
2022-08-17T02:53:43.260Z,20.45
2022-08-17T02:56:46.364Z,20.42
2022-08-17T02:59:50.263Z,18.17
2022-08-17T03:02:54.488Z,18.23
2022-08-17T03:05:57.895Z,17.77
2022-08-17T03:09:00.980Z,19.45
2022-08-17T03:12:10.224Z,26.00
2022-08-17T03:15:32.876Z,26.83
2022-08-17T03:18:35.969Z,28.83
2022-08-17T03:21:38.957Z,27.65
2022-08-17T03:24:42.157Z,28.23
2022-08-17T03:27:45.245Z,24.95
2022-08-17T03:30:53.361Z,22.57
2022-08-17T03:33:56.656Z,24.07
2022-08-17T03:36:59.855Z,22.00
2022-08-17T03:40:06.020Z,21.77
2022-08-17T03:43:10.138Z,20.63
2022-08-17T03:46:35.348Z,19.37
2022-08-17T03:49:56.880Z,18.97
2022-08-17T03:53:18.398Z,18.27
2022-08-17T03:56:39.928Z,17.75
2022-08-17T03:59:45.169Z,18.40
2022-08-17T04:02:48.571Z,20.73
2022-08-17T04:05:51.666Z,20.57
2022-08-17T04:08:54.759Z,21.25
2022-08-17T04:11:57.428Z,20.05
2022-08-17T04:15:05.203Z,20.67
2022-08-17T04:18:07.702Z,20.40
2022-08-17T04:21:13.301Z,16.33
2022-08-17T04:24:16.195Z,18.13
2022-08-17T04:27:18.649Z,18.45
2022-08-17T04:30:21.176Z,19.77
2022-08-17T04:33:27.361Z,17.83
2022-08-17T04:36:29.573Z,16.83
2022-08-17T04:39:33.855Z,19.05
2022-08-17T04:42:36.543Z,20.27
2022-08-17T04:45:51.257Z,19.52
2022-08-17T04:48:59.879Z,20.83
2022-08-17T04:52:04.527Z,20.80
2022-08-17T04:55:07.452Z,21.88
2022-08-17T04:58:10.759Z,18.65
2022-08-17T05:01:13.902Z,17.77
2022-08-17T05:04:34.287Z,16.93
2022-08-17T05:07:37.688Z,19.27
2022-08-17T05:10:45.552Z,16.00
2022-08-17T05:13:50.315Z,15.30
2022-08-17T05:16:52.656Z,15.05
2022-08-17T05:19:55.167Z,15.53
2022-08-17T05:23:00.207Z,14.77
2022-08-17T05:26:02.501Z,16.90
2022-08-17T05:29:05.640Z,15.68
2022-08-17T05:32:38.526Z,14.77
2022-08-17T05:35:37.567Z,12.63
2022-08-17T05:38:39.867Z,15.13
2022-08-17T05:41:42.933Z,15.35
2022-08-17T05:44:45.183Z,14.77
2022-08-17T05:47:47.867Z,16.35
2022-08-17T05:51:01.493Z,13.20
2022-08-17T05:54:14.067Z,9.93
2022-08-17T05:57:55.919Z,11.07
2022-08-17T06:01:07.504Z,10.70
2022-08-17T06:04:27.147Z,9.43
2022-08-17T06:07:40.293Z,9.40
2022-08-17T06:11:07.615Z,10.03
2022-08-17T06:14:30.957Z,10.02
2022-08-17T06:17:36.789Z,8.60
2022-08-17T06:20:47.594Z,10.68
2022-08-17T06:23:57.080Z,9.17
2022-08-17T06:27:11.436Z,9.67
2022-08-17T06:30:17.074Z,10.60
2022-08-17T06:33:26.248Z,8.57
2022-08-17T06:36:59.287Z,8.77
2022-08-17T06:40:27.699Z,8.97
2022-08-17T06:43:40.445Z,8.90
2022-08-17T06:46:51.536Z,11.13
2022-08-17T06:50:01.488Z,7.85
2022-08-17T06:53:25.196Z,7.68
2022-08-17T06:57:06.392Z,7.60
2022-08-17T07:00:13.328Z,9.23
2022-08-17T07:03:20.906Z,8.10
2022-08-17T07:06:41.370Z,7.63
2022-08-17T07:09:44.066Z,8.52
2022-08-17T07:12:47.049Z,11.43
2022-08-17T07:15:54.009Z,9.80
2022-08-17T07:19:00.217Z,7.80
2022-08-17T07:22:08.757Z,10.10
2022-08-17T07:25:12.977Z,8.20
2022-08-17T07:28:24.833Z,8.50
2022-08-17T07:31:30.536Z,13.50
2022-08-17T07:35:11.448Z,10.40
2022-08-17T07:38:26.976Z,8.00
2022-08-17T07:41:57.840Z,8.15
2022-08-17T07:44:56.201Z,8.00
2022-08-17T07:48:16.908Z,8.30
2022-08-17T07:51:21.559Z,9.98
2022-08-17T07:54:40.088Z,14.15
2022-08-17T07:57:42.327Z,8.07
2022-08-17T08:00:45.368Z,7.93
2022-08-17T08:03:50.463Z,7.07
2022-08-17T08:06:59.483Z,7.60
2022-08-17T08:10:10.822Z,6.70
2022-08-17T08:13:32.350Z,7.05
2022-08-17T08:16:34.867Z,7.27
2022-08-17T08:19:37.126Z,7.47
2022-08-17T08:22:46.625Z,6.80
2022-08-17T08:26:05.499Z,5.90
2022-08-17T08:29:19.921Z,7.72
2022-08-17T08:32:38.496Z,7.50
2022-08-17T08:36:10.330Z,8.03
2022-08-17T08:39:20.906Z,7.93
2022-08-17T08:42:37.669Z,8.70
2022-08-17T08:46:00.921Z,7.18
2022-08-17T08:50:02.507Z,6.63
2022-08-17T08:53:11.780Z,6.93
2022-08-17T08:56:53.775Z,8.25
2022-08-17T09:00:16.007Z,8.60
2022-08-17T09:03:51.903Z,8.35
2022-08-17T09:07:19.995Z,7.20
2022-08-17T09:10:26.218Z,7.80
2022-08-17T09:13:32.751Z,7.95
2022-08-17T09:16:43.321Z,7.80
2022-08-17T09:19:57.580Z,7.68
2022-08-17T09:23:08.072Z,8.00
2022-08-17T09:26:30.484Z,7.67
2022-08-17T09:29:37.063Z,7.78
2022-08-17T09:33:02.317Z,7.75
2022-08-17T09:36:12.913Z,8.35
2022-08-17T09:39:53.334Z,8.80
2022-08-17T09:43:12.726Z,7.10
2022-08-17T09:46:22.387Z,7.07
2022-08-17T09:49:35.072Z,7.85
2022-08-17T09:52:37.413Z,6.93
2022-08-17T09:55:53.221Z,8.17
2022-08-17T09:59:21.385Z,9.33
2022-08-17T10:03:04.555Z,8.45
2022-08-17T10:06:50.650Z,6.82
2022-08-17T10:10:13.546Z,7.90
2022-08-17T10:13:36.264Z,7.37
2022-08-17T10:17:15.667Z,8.90
2022-08-17T10:20:22.106Z,6.93
2022-08-17T10:23:47.607Z,7.13
2022-08-17T10:26:57.173Z,7.18
2022-08-17T10:30:06.366Z,8.50
2022-08-17T10:33:16.502Z,6.80
2022-08-17T10:36:35.825Z,8.52
2022-08-17T10:39:52.001Z,7.10
2022-08-17T10:42:59.455Z,6.60
2022-08-17T10:46:31.221Z,7.13
2022-08-17T10:49:39.306Z,6.67
2022-08-17T10:52:41.576Z,5.93
2022-08-17T10:56:13.762Z,6.15
2022-08-17T10:59:37.311Z,6.57
2022-08-17T11:02:55.788Z,6.33
2022-08-17T11:06:12.717Z,6.57
2022-08-17T11:09:25.556Z,6.03
2022-08-17T11:13:05.722Z,6.93
2022-08-17T11:16:30.677Z,6.50
2022-08-17T11:19:42.386Z,6.70
2022-08-17T11:23:04.980Z,6.83
2022-08-17T11:26:23.146Z,6.25
2022-08-17T11:29:31.726Z,8.93
2022-08-17T11:32:48.669Z,7.53
2022-08-17T11:36:35.600Z,6.53
2022-08-17T11:39:59.206Z,8.43
2022-08-17T11:43:38.360Z,6.78
2022-08-17T11:47:13.687Z,6.63
2022-08-17T11:50:59.266Z,7.53
2022-08-17T11:54:32.725Z,5.87
2022-08-17T11:57:32.013Z,6.63
2022-08-17T12:00:52.193Z,6.85
2022-08-17T12:04:03.834Z,6.63
2022-08-17T12:07:19.851Z,6.38
2022-08-17T12:10:31.968Z,6.40
2022-08-17T12:13:47.915Z,6.20
2022-08-17T12:17:00.744Z,5.82
2022-08-17T12:20:24.770Z,6.40
2022-08-17T12:23:47.564Z,5.70
2022-08-17T12:26:56.755Z,5.63
2022-08-17T12:30:00.158Z,7.63
2022-08-17T12:33:02.944Z,6.65
2022-08-17T12:36:08.852Z,5.28
2022-08-17T12:39:21.148Z,6.57
2022-08-17T12:42:38.037Z,6.20
2022-08-17T12:45:40.304Z,6.37
2022-08-17T12:48:59.208Z,6.13
2022-08-17T12:52:08.365Z,6.22
2022-08-17T12:55:21.353Z,5.85
2022-08-17T12:58:26.763Z,5.50
2022-08-17T13:01:29.090Z,5.67
2022-08-17T13:04:31.729Z,5.53
2022-08-17T13:07:44.692Z,5.38
2022-08-17T13:11:01.854Z,6.40
2022-08-17T13:14:10.473Z,5.67
2022-08-17T13:17:14.326Z,6.17
2022-08-17T13:20:16.617Z,6.05
2022-08-17T13:23:20.776Z,6.97
2022-08-17T13:26:34.847Z,6.40
2022-08-17T13:29:39.458Z,6.80
2022-08-17T13:32:46.552Z,5.97
2022-08-17T13:35:49.919Z,7.88
2022-08-17T13:39:08.386Z,5.22
2022-08-17T13:42:32.208Z,5.07
2022-08-17T13:45:46.042Z,5.80
2022-08-17T13:49:05.433Z,5.90
2022-08-17T13:52:10.733Z,5.60
2022-08-17T13:55:19.324Z,5.63
2022-08-17T13:58:25.680Z,5.13
2022-08-17T14:01:35.536Z,5.70
2022-08-17T14:04:40.174Z,5.87
2022-08-17T14:07:42.361Z,4.82
2022-08-17T14:10:46.029Z,5.72
2022-08-17T14:13:50.886Z,5.65
2022-08-17T14:16:53.910Z,6.43
2022-08-17T14:19:56.802Z,6.17
2022-08-17T14:22:59.064Z,6.28
2022-08-17T14:26:02.136Z,5.80
2022-08-17T14:29:05.215Z,5.20
2022-08-17T14:32:36.907Z,7.00
2022-08-17T14:35:39.149Z,6.10
2022-08-17T14:38:41.814Z,5.13
2022-08-17T14:41:44.558Z,7.07
2022-08-17T14:44:46.752Z,5.88
2022-08-17T14:47:49.090Z,6.07
2022-08-17T14:50:51.599Z,6.43
2022-08-17T14:53:53.855Z,5.88
2022-08-17T14:57:04.573Z,5.40
2022-08-17T15:00:18.409Z,6.95
2022-08-17T15:03:20.852Z,5.70
2022-08-17T15:06:24.819Z,5.53
2022-08-17T15:09:27.413Z,5.25
2022-08-17T15:12:34.968Z,5.78
2022-08-17T15:15:37.800Z,5.63
2022-08-17T15:18:40.905Z,6.00
2022-08-17T15:21:43.927Z,5.63
2022-08-17T15:24:46.111Z,5.18
2022-08-17T15:27:48.565Z,5.57
2022-08-17T15:30:52.120Z,5.20
2022-08-17T15:33:54.372Z,5.43
2022-08-17T15:36:56.634Z,6.77
2022-08-17T15:40:01.305Z,5.43
2022-08-17T15:43:08.044Z,5.05
2022-08-17T15:46:18.847Z,5.00
2022-08-17T15:49:21.127Z,5.00
2022-08-17T15:52:26.257Z,6.00
2022-08-17T15:55:29.948Z,5.25
2022-08-17T15:58:36.132Z,5.13
2022-08-17T16:03:13.108Z,5.72
2022-08-17T16:05:10.078Z,5.10
2022-08-17T16:08:15.870Z,5.33
2022-08-17T16:11:22.511Z,5.35
2022-08-17T16:14:32.367Z,5.28
2022-08-17T16:17:49.423Z,5.63
2022-08-17T16:20:51.656Z,4.93
2022-08-17T16:24:00.544Z,5.40
2022-08-17T16:27:12.382Z,6.60
2022-08-17T16:30:17.682Z,5.28
2022-08-17T16:33:20.458Z,4.95
2022-08-17T16:36:23.305Z,6.73
2022-08-17T16:39:28.177Z,5.53
2022-08-17T16:42:33.456Z,4.70
2022-08-17T16:45:40.298Z,6.93
2022-08-17T16:48:46.398Z,4.55
2022-08-17T16:51:49.770Z,5.10
2022-08-17T16:54:55.827Z,5.60
2022-08-17T16:57:58.918Z,5.30
2022-08-17T17:01:02.163Z,6.57
2022-08-17T17:04:05.671Z,6.38
2022-08-17T17:07:50.434Z,6.20
2022-08-17T17:10:57.172Z,5.47
2022-08-17T17:14:03.297Z,6.07
2022-08-17T17:17:12.094Z,4.68
2022-08-17T17:20:18.166Z,5.40
2022-08-17T17:23:38.238Z,6.27
2022-08-17T17:26:53.915Z,5.00
2022-08-17T17:30:15.834Z,5.95
2022-08-17T17:33:48.306Z,5.32
2022-08-17T17:36:55.121Z,4.60
2022-08-17T17:40:02.180Z,5.50
2022-08-17T17:43:34.698Z,5.33
2022-08-17T17:46:33.840Z,5.40
2022-08-17T17:49:39.418Z,5.93
2022-08-17T17:52:57.673Z,9.93
2022-08-17T17:56:44.402Z,6.87
2022-08-17T17:59:53.785Z,9.20
2022-08-17T18:03:14.278Z,9.85
2022-08-17T18:06:36.041Z,9.77
2022-08-17T18:09:52.487Z,11.48
2022-08-17T18:13:10.065Z,10.03
2022-08-17T18:16:14.081Z,9.03
2022-08-17T18:19:21.437Z,10.02
2022-08-17T18:22:24.867Z,8.93
2022-08-17T18:25:51.672Z,7.88
2022-08-17T18:28:54.039Z,8.13
2022-08-17T18:32:14.156Z,8.17
2022-08-17T18:35:19.131Z,8.13
2022-08-17T18:38:36.545Z,8.18
2022-08-17T18:41:50.589Z,8.73
2022-08-17T18:44:55.326Z,13.90
2022-08-17T18:47:57.902Z,7.43
2022-08-17T18:51:26.750Z,8.23
2022-08-17T18:55:08.875Z,9.02
2022-08-17T18:58:26.603Z,6.03
2022-08-17T19:01:53.395Z,7.87
2022-08-17T19:05:28.320Z,6.10
2022-08-17T19:08:31.313Z,6.78
2022-08-17T19:11:34.268Z,9.73
2022-08-17T19:14:36.841Z,5.50
2022-08-17T19:18:15.663Z,5.83
2022-08-17T19:21:25.773Z,6.00
2022-08-17T19:24:31.034Z,7.00
2022-08-17T19:27:57.829Z,6.70
2022-08-17T19:31:06.744Z,6.80
2022-08-17T19:34:10.575Z,6.93
2022-08-17T19:37:23.747Z,7.37
2022-08-17T19:40:52.286Z,6.57
2022-08-17T19:43:55.252Z,7.47
2022-08-17T19:47:43.563Z,9.18
2022-08-17T19:50:59.409Z,8.93
2022-08-17T19:54:18.480Z,7.43
2022-08-17T19:57:44.171Z,9.05
2022-08-17T20:00:50.971Z,6.03
2022-08-17T20:03:59.342Z,6.03
2022-08-17T20:07:37.524Z,7.77
2022-08-17T20:10:55.074Z,8.00
2022-08-17T20:14:07.142Z,9.07
2022-08-17T20:17:11.481Z,7.05
2022-08-17T20:20:36.977Z,6.93
2022-08-17T20:23:45.530Z,6.20
2022-08-17T20:27:18.910Z,9.37
2022-08-17T20:30:33.496Z,6.90
2022-08-17T20:33:37.947Z,8.23
2022-08-17T20:37:00.082Z,7.32
2022-08-17T20:40:05.899Z,6.97
2022-08-17T20:43:32.852Z,8.73
2022-08-17T20:46:40.723Z,8.43
2022-08-17T20:49:44.550Z,6.63
2022-08-17T20:52:56.110Z,7.70
2022-08-17T20:55:58.743Z,7.40
2022-08-17T20:59:01.051Z,7.67
2022-08-17T21:02:12.350Z,8.05
2022-08-17T21:05:48.673Z,6.45
2022-08-17T21:09:16.262Z,9.05
2022-08-17T21:12:41.891Z,9.13
2022-08-17T21:15:52.491Z,10.17
2022-08-17T21:19:31.058Z,8.77
2022-08-17T21:22:58.572Z,8.13
2022-08-17T21:26:07.416Z,9.18
2022-08-17T21:29:30.158Z,9.80
2022-08-17T21:32:37.049Z,8.57
2022-08-17T21:36:14.247Z,10.13
2022-08-17T21:39:21.417Z,8.48
2022-08-17T21:42:31.194Z,8.02
2022-08-17T21:45:36.265Z,9.10
2022-08-17T21:48:48.298Z,10.00
2022-08-17T21:51:54.250Z,8.93
2022-08-17T21:54:58.386Z,9.23
2022-08-17T21:58:14.506Z,9.30
2022-08-17T22:01:25.919Z,8.73
2022-08-17T22:04:37.042Z,8.47
2022-08-17T22:07:47.784Z,8.98
2022-08-17T22:10:51.338Z,10.18
2022-08-17T22:14:00.605Z,8.25
2022-08-17T22:17:18.134Z,9.93
2022-08-17T22:20:21.510Z,7.87
2022-08-17T22:23:45.921Z,7.00
2022-08-17T22:27:11.534Z,7.93
2022-08-17T22:30:18.979Z,9.10
2022-08-17T22:33:33.392Z,8.07
2022-08-17T22:36:37.220Z,9.80
2022-08-17T22:39:40.518Z,8.07
2022-08-17T22:42:47.342Z,7.55
2022-08-17T22:45:56.061Z,7.90
2022-08-17T22:48:59.600Z,7.00
2022-08-17T22:53:03.127Z,7.80
2022-08-17T22:56:38.742Z,7.40
2022-08-17T22:59:43.773Z,8.15
2022-08-17T23:03:22.800Z,7.72
2022-08-17T23:06:25.454Z,7.47
2022-08-17T23:09:29.364Z,7.67
2022-08-17T23:12:31.661Z,9.15
2022-08-17T23:15:34.021Z,9.73
2022-08-17T23:18:37.414Z,9.45
2022-08-17T23:21:39.668Z,11.03
2022-08-17T23:24:46.907Z,8.53
2022-08-17T23:27:50.881Z,8.98
2022-08-17T23:30:53.186Z,10.52
2022-08-17T23:33:55.607Z,10.15
2022-08-17T23:36:57.995Z,8.97
2022-08-17T23:40:00.920Z,9.80
2022-08-17T23:43:09.864Z,8.32
2022-08-17T23:46:26.045Z,12.02
2022-08-17T23:49:28.773Z,10.32
2022-08-17T23:52:31.675Z,11.00
2022-08-17T23:55:34.843Z,9.37
2022-08-17T23:58:38.644Z,8.35
